createdAt,value
2019-03-22T00:02:04.491Z,3.00
2019-03-22T00:04:34.227Z,3.00
2019-03-22T00:07:03.857Z,3.00
2019-03-22T00:09:33.536Z,3.10
2019-03-22T00:12:04.278Z,3.00
2019-03-22T00:14:34.033Z,3.00
2019-03-22T00:17:04.164Z,3.00
2019-03-22T00:19:33.806Z,2.90
2019-03-22T00:22:03.645Z,2.90
2019-03-22T00:24:33.281Z,2.80
2019-03-22T00:27:02.946Z,2.90
2019-03-22T00:29:32.563Z,2.90
2019-03-22T00:32:02.426Z,3.00
2019-03-22T00:34:32.084Z,3.00
2019-03-22T00:37:01.859Z,3.00
2019-03-22T00:39:31.536Z,3.00
2019-03-22T00:42:01.304Z,2.90
2019-03-22T00:44:30.940Z,3.00
2019-03-22T00:47:00.714Z,2.90
2019-03-22T00:49:30.298Z,2.90
2019-03-22T00:52:00.134Z,2.90
2019-03-22T00:54:29.800Z,2.80
2019-03-22T00:56:59.580Z,2.70
2019-03-22T00:59:29.188Z,2.60
2019-03-22T01:01:58.885Z,2.60
2019-03-22T01:04:28.550Z,2.50
2019-03-22T01:06:58.315Z,2.50
2019-03-22T01:09:28.012Z,2.60
2019-03-22T01:11:57.700Z,2.50
2019-03-22T01:14:27.410Z,2.50
2019-03-22T01:16:57.155Z,2.40
2019-03-22T01:19:26.809Z,2.40
2019-03-22T01:21:56.511Z,2.40
2019-03-22T01:24:26.110Z,2.50
2019-03-22T01:26:56.004Z,2.40
2019-03-22T01:29:25.816Z,2.50
2019-03-22T01:31:55.512Z,2.50
2019-03-22T01:34:25.475Z,2.50
2019-03-22T01:36:55.253Z,2.40
2019-03-22T01:39:25.241Z,2.40
2019-03-22T01:41:54.927Z,2.40
2019-03-22T01:44:24.616Z,2.30
2019-03-22T01:46:54.337Z,2.20
2019-03-22T01:49:24.200Z,2.20
2019-03-22T01:51:53.833Z,2.20
2019-03-22T01:54:23.463Z,2.20
2019-03-22T01:56:53.235Z,2.20
2019-03-22T01:59:22.870Z,2.20
2019-03-22T02:01:52.613Z,2.10
2019-03-22T02:04:22.254Z,2.10
2019-03-22T02:06:51.981Z,2.10
2019-03-22T02:09:21.748Z,2.00
2019-03-22T02:11:51.519Z,1.90
2019-03-22T02:14:21.250Z,1.90
2019-03-22T02:16:50.984Z,1.90
2019-03-22T02:19:20.815Z,1.90
2019-03-22T02:21:50.972Z,1.90
2019-03-22T02:24:20.585Z,1.90
2019-03-22T02:26:50.343Z,2.00
2019-03-22T02:29:20.144Z,1.90
2019-03-22T02:31:49.794Z,1.90
2019-03-22T02:34:19.467Z,1.80
2019-03-22T02:36:49.193Z,1.80
2019-03-22T02:39:18.853Z,1.90
2019-03-22T02:41:48.747Z,1.90
2019-03-22T02:44:18.537Z,1.90
2019-03-22T02:46:48.198Z,1.90
2019-03-22T02:49:17.942Z,1.90
2019-03-22T02:51:47.589Z,2.00
2019-03-22T02:54:17.357Z,2.20
2019-03-22T02:56:46.953Z,2.10
2019-03-22T02:59:16.606Z,2.20
2019-03-22T03:01:46.458Z,2.20
2019-03-22T03:04:17.297Z,2.10
2019-03-22T03:06:46.897Z,2.10
2019-03-22T03:09:16.564Z,2.00
2019-03-22T03:11:46.210Z,2.00
2019-03-22T03:14:16.114Z,2.00
2019-03-22T03:16:45.815Z,2.00
2019-03-22T03:19:15.556Z,2.00
2019-03-22T03:21:45.145Z,1.90
2019-03-22T03:24:14.895Z,1.90
2019-03-22T03:26:44.612Z,1.80
2019-03-22T03:29:14.324Z,1.70
2019-03-22T03:31:43.943Z,1.70
2019-03-22T03:34:13.788Z,1.80
2019-03-22T03:36:43.473Z,1.80
2019-03-22T03:39:13.165Z,1.90
2019-03-22T03:41:42.858Z,1.90
2019-03-22T03:44:12.654Z,1.80
2019-03-22T03:46:42.350Z,1.60
2019-03-22T03:49:12.070Z,1.50
2019-03-22T03:51:41.692Z,1.50
2019-03-22T03:54:11.455Z,1.40
2019-03-22T03:56:41.111Z,1.30
2019-03-22T03:59:10.821Z,1.30
2019-03-22T04:01:40.473Z,1.50
2019-03-22T04:04:10.105Z,1.40
2019-03-22T04:06:39.877Z,1.40
2019-03-22T04:09:09.652Z,1.50
2019-03-22T04:11:39.321Z,1.50
2019-03-22T04:14:28.211Z,1.50
2019-03-22T04:21:08.874Z,1.60
2019-03-22T04:23:38.536Z,1.60
2019-03-22T04:26:08.347Z,1.60
2019-03-22T04:28:38.084Z,1.60
2019-03-22T04:31:07.698Z,1.60
2019-03-22T04:33:37.475Z,1.60
2019-03-22T04:36:07.075Z,1.70
2019-03-22T04:38:36.762Z,1.80
2019-03-22T04:41:06.527Z,1.80
2019-03-22T04:43:36.219Z,1.70
2019-03-22T04:46:06.670Z,1.60
2019-03-22T04:48:36.840Z,1.50
2019-03-22T04:51:08.048Z,1.50
2019-03-22T04:53:40.825Z,1.40
2019-03-22T04:56:13.602Z,1.40
2019-03-22T04:58:46.867Z,1.50
2019-03-22T05:01:18.796Z,1.50
2019-03-22T05:03:48.724Z,1.40
2019-03-22T05:06:19.526Z,1.30
2019-03-22T05:08:51.134Z,1.50
2019-03-22T05:11:22.582Z,1.40
2019-03-22T05:13:55.098Z,1.30
2019-03-22T05:16:24.990Z,1.20
2019-03-22T05:18:55.193Z,1.20
2019-03-22T05:21:27.877Z,1.10
2019-03-22T05:24:00.620Z,1.10
2019-03-22T05:26:32.713Z,1.10
2019-03-22T05:29:02.943Z,1.10
2019-03-22T05:31:35.707Z,1.10
2019-03-22T05:34:05.627Z,1.20
2019-03-22T05:36:35.421Z,1.20
2019-03-22T05:39:07.874Z,1.30
2019-03-22T05:41:37.829Z,1.30
2019-03-22T05:44:07.511Z,1.40
2019-03-22T05:46:37.171Z,1.30
2019-03-22T05:49:07.011Z,1.40
2019-03-22T05:51:36.635Z,1.50
2019-03-22T05:54:06.475Z,1.60
2019-03-22T05:56:36.122Z,1.60
2019-03-22T05:59:05.945Z,1.70
2019-03-22T06:01:35.896Z,1.90
2019-03-22T06:04:05.579Z,1.90
2019-03-22T06:06:35.315Z,2.00
2019-03-22T06:09:07.323Z,2.00
2019-03-22T06:11:37.106Z,2.10
2019-03-22T06:14:06.972Z,2.20
2019-03-22T06:16:36.578Z,2.30
2019-03-22T06:19:06.336Z,2.40
2019-03-22T06:21:36.054Z,2.40
2019-03-22T06:24:06.030Z,2.40
2019-03-22T06:26:35.692Z,2.50
2019-03-22T06:29:05.340Z,2.60
2019-03-22T06:31:35.052Z,2.60
2019-03-22T06:34:05.070Z,2.70
2019-03-22T06:36:34.871Z,2.80
2019-03-22T06:39:07.130Z,2.90
2019-03-22T06:41:37.162Z,2.90
2019-03-22T06:44:06.786Z,3.10
2019-03-22T06:46:36.552Z,3.10
2019-03-22T06:49:06.271Z,3.20
2019-03-22T06:51:36.049Z,3.20
2019-03-22T06:54:05.682Z,3.30
2019-03-22T06:56:35.892Z,3.40
2019-03-22T06:59:05.680Z,3.40
2019-03-22T07:01:35.360Z,3.60
2019-03-22T07:04:05.135Z,3.70
2019-03-22T07:06:34.922Z,3.80
2019-03-22T07:09:07.377Z,3.90
2019-03-22T07:11:37.883Z,4.10
2019-03-22T07:14:08.170Z,4.10
2019-03-22T07:16:38.093Z,4.20
2019-03-22T07:19:07.681Z,4.20
2019-03-22T07:21:37.367Z,4.20
2019-03-22T07:24:07.189Z,4.30
2019-03-22T07:26:36.921Z,4.40
2019-03-22T07:29:06.639Z,4.50
2019-03-22T07:31:36.326Z,4.70
2019-03-22T07:34:05.940Z,4.80
2019-03-22T07:36:35.757Z,5.00
2019-03-22T07:39:07.944Z,5.20
2019-03-22T07:41:37.813Z,5.40
2019-03-22T07:44:07.603Z,5.60
2019-03-22T07:46:37.302Z,5.80
2019-03-22T07:49:07.146Z,5.90
2019-03-22T07:51:37.054Z,6.10
2019-03-22T07:54:06.719Z,6.20
2019-03-22T07:56:36.389Z,6.30
2019-03-22T07:59:06.044Z,6.30
2019-03-22T08:01:35.837Z,6.30
2019-03-22T08:04:05.578Z,6.40
2019-03-22T08:06:35.180Z,6.50
2019-03-22T08:09:08.359Z,6.40
2019-03-22T08:11:38.896Z,6.40
2019-03-22T08:14:08.678Z,6.30
2019-03-22T08:16:38.455Z,6.40
2019-03-22T08:19:08.154Z,6.40
2019-03-22T08:21:37.996Z,6.40
2019-03-22T08:24:07.857Z,6.50
2019-03-22T08:26:37.632Z,6.70
2019-03-22T08:29:07.343Z,6.80
2019-03-22T08:31:37.122Z,6.80
2019-03-22T08:34:06.897Z,6.80
2019-03-22T08:36:36.727Z,7.00
2019-03-22T08:39:08.329Z,7.20
2019-03-22T08:41:39.112Z,7.40
2019-03-22T08:44:08.908Z,7.50
2019-03-22T08:46:38.850Z,7.50
2019-03-22T08:49:09.648Z,7.50
2019-03-22T08:51:39.575Z,7.50
2019-03-22T08:54:09.293Z,7.60
2019-03-22T08:56:39.215Z,7.70
2019-03-22T08:59:08.895Z,7.60
2019-03-22T09:01:38.547Z,7.70
2019-03-22T09:04:08.369Z,7.70
2019-03-22T09:06:38.097Z,7.70
2019-03-22T09:09:08.158Z,7.70
2019-03-22T09:11:37.752Z,7.70
2019-03-22T09:14:07.385Z,7.90
2019-03-22T09:16:37.057Z,8.00
2019-03-22T09:19:06.830Z,7.90
2019-03-22T09:21:36.639Z,7.80
2019-03-22T09:24:06.479Z,8.10
2019-03-22T09:26:47.218Z,8.20
2019-03-22T09:29:07.462Z,8.20
2019-03-22T09:31:37.160Z,8.50
2019-03-22T09:34:07.260Z,8.60
2019-03-22T09:36:36.870Z,8.40
2019-03-22T09:39:08.250Z,8.60
2019-03-22T09:41:37.938Z,8.80
2019-03-22T09:44:07.655Z,8.80
2019-03-22T09:46:37.333Z,9.10
2019-03-22T09:49:06.986Z,9.20
2019-03-22T09:51:36.718Z,9.50
2019-03-22T09:54:06.366Z,9.30
2019-03-22T09:56:46.374Z,9.40
2019-03-22T09:59:07.952Z,9.70
2019-03-22T10:01:38.453Z,9.90
2019-03-22T10:04:08.263Z,10.20
2019-03-22T10:06:38.078Z,10.10
2019-03-22T10:09:07.872Z,10.00
2019-03-22T10:11:37.727Z,10.00
2019-03-22T10:14:07.525Z,10.00
2019-03-22T10:16:37.176Z,10.00
2019-03-22T10:19:06.906Z,10.00
2019-03-22T10:21:36.713Z,10.20
2019-03-22T10:24:06.588Z,10.10
2019-03-22T10:26:36.309Z,10.00
2019-03-22T10:29:07.065Z,10.20
2019-03-22T10:31:37.893Z,10.20
2019-03-22T10:34:07.813Z,10.20
2019-03-22T10:36:37.449Z,10.40
2019-03-22T10:39:08.593Z,10.60
2019-03-22T10:41:38.537Z,10.60
2019-03-22T10:44:08.354Z,10.60
2019-03-22T10:46:37.989Z,10.40
2019-03-22T10:49:07.746Z,10.50
2019-03-22T10:51:37.547Z,10.40
2019-03-22T10:54:07.204Z,10.30
2019-03-22T10:56:36.851Z,10.60
2019-03-22T10:59:06.586Z,10.60
2019-03-22T11:01:48.269Z,10.50
2019-03-22T11:06:37.590Z,10.50
2019-03-22T11:09:08.488Z,10.20
2019-03-22T11:11:38.176Z,10.20
2019-03-22T11:14:07.927Z,10.10
2019-03-22T11:16:37.754Z,10.10
2019-03-22T11:19:07.516Z,10.20
2019-03-22T11:21:37.198Z,10.20
2019-03-22T11:24:07.213Z,10.40
2019-03-22T11:26:36.900Z,10.50
2019-03-22T11:29:06.948Z,10.60
2019-03-22T11:31:40.080Z,10.50
2019-03-22T11:34:07.999Z,10.60
2019-03-22T11:36:37.688Z,10.80
2019-03-22T11:39:15.453Z,11.00
2019-03-22T11:41:41.960Z,10.90
2019-03-22T11:44:11.823Z,11.00
2019-03-22T11:46:41.429Z,11.10
2019-03-22T11:49:11.169Z,11.10
2019-03-22T11:51:40.895Z,11.30
2019-03-22T11:54:10.719Z,11.40
2019-03-22T11:56:40.370Z,11.40
2019-03-22T11:59:10.045Z,11.40
2019-03-22T12:01:39.681Z,11.40
2019-03-22T12:04:09.472Z,11.40
2019-03-22T12:06:39.064Z,11.20
2019-03-22T12:09:09.791Z,11.30
2019-03-22T12:11:39.415Z,11.40
2019-03-22T12:14:09.400Z,11.60
2019-03-22T12:16:39.092Z,11.60
2019-03-22T12:19:08.767Z,11.80
2019-03-22T12:21:38.457Z,11.90
2019-03-22T12:24:08.102Z,11.80
2019-03-22T12:26:37.902Z,12.00
2019-03-22T12:29:09.447Z,12.20
2019-03-22T12:31:39.156Z,12.30
2019-03-22T12:34:08.886Z,12.20
2019-03-22T12:36:38.492Z,12.30
2019-03-22T12:39:08.849Z,12.40
2019-03-22T12:41:38.638Z,12.40
2019-03-22T12:44:08.356Z,12.10
2019-03-22T12:46:37.970Z,12.20
2019-03-22T12:49:07.727Z,12.30
2019-03-22T12:51:37.596Z,12.50
2019-03-22T12:54:07.312Z,12.70
2019-03-22T12:56:37.079Z,12.80
2019-03-22T12:59:07.038Z,12.60
2019-03-22T13:01:36.679Z,12.60
2019-03-22T13:04:06.440Z,12.50
2019-03-22T13:06:36.185Z,12.50
2019-03-22T13:09:08.110Z,12.60
2019-03-22T13:11:37.989Z,12.60
2019-03-22T13:14:07.700Z,12.50
2019-03-22T13:16:37.470Z,12.50
2019-03-22T13:19:07.295Z,12.30
2019-03-22T13:21:36.985Z,12.20
2019-03-22T13:24:06.625Z,12.00
2019-03-22T13:26:36.398Z,12.00
2019-03-22T13:29:07.804Z,12.10
2019-03-22T13:31:37.489Z,12.20
2019-03-22T13:34:07.198Z,12.30
2019-03-22T13:36:37.259Z,12.20
2019-03-22T13:39:07.837Z,12.30
2019-03-22T13:41:37.664Z,12.40
2019-03-22T13:44:07.336Z,12.50
2019-03-22T13:46:40.613Z,12.60
2019-03-22T13:49:08.429Z,12.50
2019-03-22T13:51:38.187Z,12.50
2019-03-22T13:54:07.891Z,12.40
2019-03-22T13:56:37.781Z,12.40
2019-03-22T13:59:07.591Z,12.60
2019-03-22T14:01:37.458Z,12.70
2019-03-22T14:04:07.283Z,12.80
2019-03-22T14:06:36.947Z,13.00
2019-03-22T14:09:08.250Z,13.00
2019-03-22T14:11:37.991Z,12.90
2019-03-22T14:14:07.559Z,12.70
2019-03-22T14:16:37.367Z,12.70
2019-03-22T14:19:07.105Z,12.80
2019-03-22T14:21:36.784Z,12.70
2019-03-22T14:24:06.398Z,12.70
2019-03-22T14:26:36.082Z,12.80
2019-03-22T14:29:05.796Z,12.80
2019-03-22T14:31:35.509Z,12.80
2019-03-22T14:34:05.159Z,12.70
2019-03-22T14:36:34.926Z,12.90
2019-03-22T14:39:07.662Z,13.20
2019-03-22T14:42:16.532Z,13.30
2019-03-22T14:44:46.223Z,13.40
2019-03-22T14:47:15.962Z,13.60
2019-03-22T14:49:45.760Z,13.50
2019-03-22T14:52:15.381Z,13.40
2019-03-22T14:54:45.140Z,13.50
2019-03-22T14:57:14.852Z,13.60
2019-03-22T14:59:44.511Z,13.60
2019-03-22T15:02:14.457Z,13.80
2019-03-22T15:04:44.391Z,13.80
2019-03-22T15:07:19.451Z,13.60
2019-03-22T15:09:46.363Z,13.60
2019-03-22T15:12:16.237Z,13.50
2019-03-22T15:14:47.883Z,13.60
2019-03-22T15:17:19.179Z,13.60
2019-03-22T15:19:50.419Z,13.70
2019-03-22T15:22:22.561Z,13.80
2019-03-22T15:24:53.816Z,13.80
2019-03-22T15:27:25.182Z,13.60
2019-03-22T15:29:56.481Z,13.60
2019-03-22T15:32:27.996Z,13.40
2019-03-22T15:34:59.259Z,13.40
2019-03-22T15:37:30.856Z,13.40
2019-03-22T15:40:01.097Z,13.30
2019-03-22T15:42:30.931Z,13.20
2019-03-22T15:59:28.582Z,12.90
2019-03-22T16:01:58.365Z,12.90
2019-03-22T16:04:27.989Z,13.00
2019-03-22T16:06:57.699Z,13.00
2019-03-22T16:09:27.304Z,13.10
2019-03-22T16:11:57.209Z,13.20
2019-03-22T16:14:26.832Z,13.20
2019-03-22T16:16:56.984Z,13.30
2019-03-22T16:19:26.743Z,13.30
2019-03-22T16:21:56.316Z,13.40
2019-03-22T16:24:26.126Z,13.40
2019-03-22T16:26:55.887Z,13.40
2019-03-22T16:29:25.586Z,13.50
2019-03-22T16:31:55.297Z,13.50
2019-03-22T16:34:25.132Z,13.30
2019-03-22T16:36:54.771Z,13.30
2019-03-22T16:39:24.546Z,13.40
2019-03-22T16:41:54.279Z,13.30
2019-03-22T16:44:23.959Z,13.30
2019-03-22T16:46:55.190Z,13.20
2019-03-22T16:49:24.961Z,13.10
2019-03-22T16:51:54.554Z,12.90
2019-03-22T16:54:24.225Z,12.80
2019-03-22T16:56:53.836Z,12.70
2019-03-22T16:59:23.449Z,12.50
2019-03-22T17:01:53.233Z,12.40
2019-03-22T17:04:22.972Z,12.30
2019-03-22T17:06:52.782Z,12.10
2019-03-22T17:09:22.564Z,12.00
2019-03-22T17:11:52.180Z,11.90
2019-03-22T17:14:21.956Z,11.80
2019-03-22T17:16:51.612Z,11.60
2019-03-22T17:19:21.341Z,11.50
2019-03-22T17:21:50.977Z,11.30
2019-03-22T17:24:20.647Z,11.20
2019-03-22T17:26:50.437Z,11.10
2019-03-22T17:29:20.035Z,11.10
2019-03-22T17:31:49.756Z,11.00
2019-03-22T17:34:19.478Z,10.90
2019-03-22T17:36:49.182Z,10.70
2019-03-22T17:39:18.852Z,10.60
2019-03-22T17:41:48.715Z,10.40
2019-03-22T17:44:18.329Z,10.30
2019-03-22T17:46:48.183Z,10.10
2019-03-22T17:49:17.822Z,10.00
2019-03-22T17:51:47.577Z,10.00
2019-03-22T17:54:17.285Z,9.90
2019-03-22T17:56:46.993Z,9.80
2019-03-22T17:59:16.633Z,9.70
2019-03-22T18:01:46.371Z,9.60
2019-03-22T18:04:23.907Z,9.50
2019-03-22T18:06:47.444Z,9.40
2019-03-22T18:09:17.142Z,9.30
2019-03-22T18:11:46.976Z,9.20
2019-03-22T18:14:16.680Z,9.10
2019-03-22T18:16:46.351Z,9.10
2019-03-22T18:19:15.959Z,9.20
2019-03-22T18:21:45.569Z,9.10
2019-03-22T18:24:15.232Z,9.10
2019-03-22T18:26:44.841Z,9.10
2019-03-22T18:29:14.469Z,9.00
2019-03-22T18:31:44.192Z,8.90
2019-03-22T18:34:13.836Z,8.80
2019-03-22T18:36:43.426Z,8.70
2019-03-22T18:39:12.989Z,8.70
2019-03-22T18:41:42.681Z,8.70
2019-03-22T18:44:12.409Z,8.70
2019-03-22T18:46:42.054Z,8.80
2019-03-22T18:49:11.752Z,8.80
2019-03-22T18:51:41.342Z,8.80
2019-03-22T18:54:10.987Z,8.80
2019-03-22T18:56:42.205Z,8.80
2019-03-22T18:59:12.172Z,8.70
2019-03-22T19:01:41.817Z,8.60
2019-03-22T19:04:11.469Z,8.50
2019-03-22T19:06:41.257Z,8.50
2019-03-22T19:09:10.901Z,8.50
2019-03-22T19:11:40.529Z,8.50
2019-03-22T19:14:10.125Z,8.40
2019-03-22T19:16:39.785Z,8.30
2019-03-22T19:19:09.358Z,8.30
2019-03-22T19:21:39.210Z,8.20
2019-03-22T19:24:08.853Z,8.20
2019-03-22T19:26:38.579Z,8.20
2019-03-22T19:29:08.149Z,8.30
2019-03-22T19:31:37.811Z,8.30
2019-03-22T19:34:07.462Z,8.40
2019-03-22T19:36:37.117Z,8.40
2019-03-22T19:39:07.199Z,8.50
2019-03-22T19:41:36.823Z,8.60
2019-03-22T19:44:06.524Z,8.60
2019-03-22T19:46:36.297Z,8.60
2019-03-22T19:49:05.957Z,8.60
2019-03-22T19:51:35.626Z,8.60
2019-03-22T19:54:05.324Z,8.60
2019-03-22T19:56:35.010Z,8.50
2019-03-22T19:59:04.870Z,8.40
2019-03-22T20:01:34.459Z,8.20
2019-03-22T20:04:04.338Z,8.10
2019-03-22T20:06:34.087Z,8.00
2019-03-22T20:09:07.234Z,7.90
2019-03-22T20:11:38.509Z,7.80
2019-03-22T20:14:08.237Z,7.70
2019-03-22T20:16:37.878Z,7.70
2019-03-22T20:19:07.443Z,7.70
2019-03-22T20:21:37.190Z,7.60
2019-03-22T20:24:07.311Z,7.70
2019-03-22T20:26:36.969Z,7.70
2019-03-22T20:29:06.713Z,7.70
2019-03-22T20:31:36.385Z,7.70
2019-03-22T20:34:06.056Z,7.60
2019-03-22T20:36:35.661Z,7.60
2019-03-22T20:39:06.509Z,7.50
2019-03-22T20:41:36.163Z,7.40
2019-03-22T20:44:05.877Z,7.30
2019-03-22T20:46:35.495Z,7.30
2019-03-22T20:49:05.330Z,7.30
2019-03-22T20:51:35.087Z,7.30
2019-03-22T20:54:04.743Z,7.20
2019-03-22T20:56:34.412Z,7.10
2019-03-22T20:59:04.560Z,7.10
2019-03-22T21:01:34.405Z,7.00
2019-03-22T21:04:03.973Z,6.90
2019-03-22T21:06:33.566Z,6.80
2019-03-22T21:09:04.317Z,6.70
2019-03-22T21:15:24.770Z,6.70
2019-03-22T21:17:53.853Z,6.70
2019-03-22T21:20:23.496Z,6.70
2019-03-22T21:22:53.144Z,6.60
2019-03-22T21:25:22.757Z,6.50
2019-03-22T21:27:52.530Z,6.30
2019-03-22T21:30:22.581Z,6.20
2019-03-22T21:32:52.272Z,6.10
2019-03-22T21:35:23.095Z,6.10
2019-03-22T21:37:52.920Z,6.20
2019-03-22T21:40:22.514Z,6.30
2019-03-22T21:42:52.128Z,6.30
2019-03-22T21:45:21.858Z,6.40
2019-03-22T21:47:51.562Z,6.50
2019-03-22T21:50:21.312Z,6.50
2019-03-22T21:52:50.980Z,6.50
2019-03-22T21:55:20.686Z,6.40
2019-03-22T21:57:50.332Z,6.40
2019-03-22T22:00:21.579Z,6.60
2019-03-22T22:02:51.297Z,6.80
2019-03-22T22:05:20.932Z,7.00
2019-03-22T22:07:50.956Z,7.10
2019-03-22T22:10:20.778Z,7.10
2019-03-22T22:12:50.541Z,7.20
2019-03-22T22:15:20.352Z,7.20
2019-03-22T22:17:50.002Z,7.20
2019-03-22T22:20:28.476Z,7.30
2019-03-22T22:22:52.297Z,7.30
2019-03-22T22:25:21.901Z,7.20
2019-03-22T22:27:51.560Z,7.20
2019-03-22T22:30:21.242Z,7.20
2019-03-22T22:32:50.835Z,7.20
2019-03-22T22:35:20.461Z,7.20
2019-03-22T22:37:50.259Z,7.10
2019-03-22T22:40:19.863Z,7.10
2019-03-22T22:42:49.615Z,7.00
2019-03-22T22:45:19.249Z,6.90
2019-03-22T22:47:49.173Z,6.70
2019-03-22T22:50:18.882Z,6.50
2019-03-22T22:52:48.519Z,6.30
2019-03-22T22:55:18.189Z,6.10
2019-03-22T22:57:47.997Z,6.10
2019-03-22T23:00:18.401Z,5.90
2019-03-22T23:02:48.077Z,5.70
2019-03-22T23:05:17.822Z,5.70
2019-03-22T23:07:47.513Z,5.50
2019-03-22T23:10:17.249Z,5.40
2019-03-22T23:12:46.864Z,5.30
2019-03-22T23:15:16.524Z,5.20
2019-03-22T23:17:46.139Z,5.10
2019-03-22T23:20:17.022Z,5.00
2019-03-22T23:22:46.733Z,4.90
2019-03-22T23:25:16.526Z,4.90
2019-03-22T23:27:46.374Z,5.00
2019-03-22T23:30:16.196Z,5.00
2019-03-22T23:32:45.876Z,5.10
2019-03-22T23:35:15.678Z,5.20
2019-03-22T23:37:45.366Z,5.20
2019-03-22T23:40:15.174Z,5.20
2019-03-22T23:42:44.897Z,5.30
2019-03-22T23:45:14.665Z,5.30
2019-03-22T23:47:44.476Z,5.30
2019-03-22T23:50:14.258Z,5.10
2019-03-22T23:52:43.952Z,5.00
2019-03-22T23:55:13.700Z,4.90
2019-03-22T23:57:43.260Z,4.80
